createdAt,value
2019-02-19T00:00:42.647Z,101119.53
2019-02-19T00:03:16.404Z,101116.65
2019-02-19T00:05:48.776Z,101117.80
2019-02-19T00:08:20.628Z,101117.64
2019-02-19T00:11:01.521Z,101119.23
2019-02-19T00:13:32.633Z,101123.19
2019-02-19T00:16:04.444Z,101116.53
2019-02-19T00:18:35.395Z,101113.69
2019-02-19T00:21:06.384Z,101117.71
2019-02-19T00:23:39.061Z,101115.16
2019-02-19T00:26:14.302Z,101112.99
2019-02-19T00:28:46.359Z,101114.06
2019-02-19T00:31:18.616Z,101109.75
2019-02-19T00:33:49.502Z,101116.77
2019-02-19T00:36:21.797Z,101119.58
2019-02-19T00:38:54.190Z,101109.00
2019-02-19T00:41:25.948Z,101113.52
2019-02-19T00:43:58.219Z,101114.11
2019-02-19T00:46:31.499Z,101111.77
2019-02-19T00:49:06.687Z,101110.41
2019-02-19T00:51:44.235Z,101112.55
2019-02-19T00:54:15.402Z,101103.81
2019-02-19T00:56:51.947Z,101102.19
2019-02-19T00:59:24.184Z,101107.73
2019-02-19T01:02:01.075Z,101110.56
2019-02-19T01:04:36.006Z,101104.40
2019-02-19T01:07:07.851Z,101105.39
2019-02-19T01:09:41.872Z,101111.55
2019-02-19T01:12:12.985Z,101118.66
2019-02-19T01:14:46.343Z,101120.72
2019-02-19T01:17:21.012Z,101122.51
2019-02-19T01:19:52.408Z,101119.88
2019-02-19T01:22:25.539Z,101117.64
2019-02-19T01:24:59.673Z,101113.41
2019-02-19T01:27:31.973Z,101118.70
2019-02-19T01:30:04.521Z,101130.12
2019-02-19T01:32:36.961Z,101134.52
2019-02-19T01:35:10.874Z,101142.97
2019-02-19T01:37:41.177Z,101139.72
2019-02-19T01:40:14.260Z,101131.17
2019-02-19T01:42:49.177Z,101139.69
2019-02-19T01:45:19.712Z,101138.77
2019-02-19T01:47:52.944Z,101139.09
2019-02-19T01:50:26.877Z,101139.23
2019-02-19T01:52:58.130Z,101142.14
2019-02-19T01:55:29.137Z,101144.78
2019-02-19T01:57:59.943Z,101146.11
2019-02-19T02:00:32.294Z,101146.24
2019-02-19T02:03:05.282Z,101145.19
2019-02-19T02:05:39.474Z,101146.14
2019-02-19T02:08:13.197Z,101148.45
2019-02-19T02:10:47.480Z,101153.00
2019-02-19T02:13:20.071Z,101144.74
2019-02-19T02:15:51.738Z,101132.17
2019-02-19T02:18:23.268Z,101136.66
2019-02-19T02:20:55.305Z,101132.48
2019-02-19T02:23:29.554Z,101133.57
2019-02-19T02:26:01.422Z,101132.48
2019-02-19T02:28:34.546Z,101129.44
2019-02-19T02:31:16.477Z,101130.48
2019-02-19T02:33:47.098Z,101128.94
2019-02-19T02:36:20.028Z,101128.61
2019-02-19T02:38:51.538Z,101129.91
2019-02-19T02:41:22.228Z,101138.12
2019-02-19T02:43:54.569Z,101136.55
2019-02-19T02:46:27.917Z,101139.16
2019-02-19T02:48:59.989Z,101146.66
2019-02-19T02:51:34.978Z,101144.92
2019-02-19T02:54:07.708Z,101145.06
2019-02-19T02:56:41.601Z,101143.86
2019-02-19T02:59:16.230Z,101145.40
2019-02-19T03:01:53.762Z,101141.48
2019-02-19T03:04:25.451Z,101156.05
2019-02-19T03:07:14.053Z,101155.20
2019-02-19T03:09:45.811Z,101161.30
2019-02-19T03:12:20.272Z,101151.39
2019-02-19T03:14:59.999Z,101159.67
2019-02-19T03:17:32.095Z,101168.30
2019-02-19T03:20:07.168Z,101157.86
2019-02-19T03:22:43.376Z,101154.83
2019-02-19T03:25:19.169Z,101155.97
2019-02-19T03:27:50.129Z,101165.36
2019-02-19T03:30:21.632Z,101158.53
2019-02-19T03:32:54.528Z,101168.67
2019-02-19T03:35:30.269Z,101169.64
2019-02-19T03:38:14.977Z,101179.69
2019-02-19T03:40:46.272Z,101176.95
2019-02-19T03:43:20.776Z,101175.81
2019-02-19T03:45:56.169Z,101178.74
2019-02-19T03:48:26.712Z,101175.78
2019-02-19T03:50:57.701Z,101182.86
2019-02-19T03:53:34.186Z,101178.93
2019-02-19T03:56:07.863Z,101191.68
2019-02-19T03:58:40.855Z,101194.07
2019-02-19T04:01:17.679Z,101201.81
2019-02-19T04:03:51.388Z,101203.06
2019-02-19T04:06:23.116Z,101202.22
2019-02-19T04:08:57.336Z,101205.35
2019-02-19T04:11:31.598Z,101210.13
2019-02-19T04:14:09.664Z,101206.72
2019-02-19T04:16:42.724Z,101202.58
2019-02-19T04:19:19.024Z,101209.95
2019-02-19T04:21:51.842Z,101209.30
2019-02-19T04:24:22.684Z,101214.34
2019-02-19T04:26:53.935Z,101216.80
2019-02-19T04:29:26.694Z,101212.45
2019-02-19T04:31:57.843Z,101213.37
2019-02-19T04:34:31.474Z,101220.87
2019-02-19T04:37:05.846Z,101223.98
2019-02-19T04:39:37.848Z,101218.88
2019-02-19T04:42:13.055Z,101218.25
2019-02-19T04:44:55.378Z,101215.87
2019-02-19T04:47:26.921Z,101213.45
2019-02-19T04:50:04.087Z,101221.73
2019-02-19T04:52:38.174Z,101217.25
2019-02-19T04:55:13.579Z,101218.55
2019-02-19T04:57:46.772Z,101203.00
2019-02-19T05:00:18.966Z,101208.72
2019-02-19T05:03:00.346Z,101213.95
2019-02-19T05:05:37.229Z,101213.23
2019-02-19T05:08:10.643Z,101212.45
2019-02-19T05:10:41.377Z,101211.61
2019-02-19T05:13:14.806Z,101202.25
2019-02-19T05:15:46.191Z,101194.70
2019-02-19T05:18:17.233Z,101207.86
2019-02-19T05:20:50.529Z,101211.61
2019-02-19T05:23:25.826Z,101209.68
2019-02-19T05:25:56.550Z,101211.05
2019-02-19T05:28:30.762Z,101220.36
2019-02-19T05:31:01.202Z,101220.13
2019-02-19T05:33:35.939Z,101218.53
2019-02-19T05:36:09.616Z,101225.98
2019-02-19T05:38:45.316Z,101226.72
2019-02-19T05:41:17.097Z,101235.69
2019-02-19T05:43:50.106Z,101239.85
2019-02-19T05:46:21.847Z,101237.10
2019-02-19T05:48:52.496Z,101244.77
2019-02-19T05:55:35.649Z,101252.48
2019-02-19T05:58:09.685Z,101260.37
2019-02-19T06:00:43.898Z,101269.10
2019-02-19T06:03:15.557Z,101274.52
2019-02-19T06:05:47.589Z,101263.96
2019-02-19T06:08:18.752Z,101267.97
2019-02-19T06:10:50.132Z,101272.16
2019-02-19T06:13:21.982Z,101268.05
2019-02-19T06:15:56.895Z,101264.08
2019-02-19T06:18:31.609Z,101268.25
2019-02-19T06:21:19.733Z,101264.24
2019-02-19T06:24:11.890Z,101271.25
2019-02-19T06:26:42.847Z,101278.52
2019-02-19T06:29:16.152Z,101279.16
2019-02-19T06:31:48.175Z,101295.89
2019-02-19T06:34:33.481Z,101293.71
2019-02-19T06:37:04.526Z,101294.74
2019-02-19T06:39:35.263Z,101296.56
2019-02-19T06:42:07.754Z,101294.69
2019-02-19T06:44:40.917Z,101305.09
2019-02-19T06:47:13.025Z,101309.23
2019-02-19T06:49:46.604Z,101309.38
2019-02-19T06:52:23.298Z,101314.92
2019-02-19T06:55:09.764Z,101314.60
2019-02-19T06:57:41.729Z,101325.07
2019-02-19T07:00:15.138Z,101325.11
2019-02-19T07:03:04.553Z,101329.11
2019-02-19T07:05:35.188Z,101324.11
2019-02-19T07:08:10.607Z,101332.70
2019-02-19T07:10:50.838Z,101333.02
2019-02-19T07:13:33.919Z,101336.88
2019-02-19T07:16:06.014Z,101337.84
2019-02-19T07:18:40.189Z,101358.13
2019-02-19T07:21:10.820Z,101357.33
2019-02-19T07:23:42.776Z,101364.27
2019-02-19T07:26:17.113Z,101355.73
2019-02-19T07:28:47.434Z,101360.38
2019-02-19T07:31:19.268Z,101367.02
2019-02-19T07:33:51.814Z,101371.52
2019-02-19T07:36:22.854Z,101370.00
2019-02-19T07:38:55.901Z,101371.34
2019-02-19T07:41:28.089Z,101375.44
2019-02-19T07:43:58.852Z,101380.44
2019-02-19T07:46:32.651Z,101381.95
2019-02-19T07:49:03.468Z,101377.66
2019-02-19T07:51:36.626Z,101394.91
2019-02-19T07:54:14.657Z,101390.39
2019-02-19T07:56:48.159Z,101394.05
2019-02-19T07:59:23.222Z,101388.52
2019-02-19T08:01:56.142Z,101392.41
2019-02-19T08:04:28.678Z,101397.50
2019-02-19T08:06:59.199Z,101402.02
2019-02-19T08:09:38.912Z,101409.25
2019-02-19T08:12:09.239Z,101409.70
2019-02-19T08:14:42.397Z,101417.56
2019-02-19T08:17:14.332Z,101416.87
2019-02-19T08:19:48.723Z,101420.66
2019-02-19T08:22:20.394Z,101423.11
2019-02-19T08:25:00.641Z,101434.20
2019-02-19T08:27:32.675Z,101429.31
2019-02-19T08:30:02.903Z,101438.89
2019-02-19T08:32:33.159Z,101433.73
2019-02-19T08:35:06.728Z,101440.60
2019-02-19T08:37:39.756Z,101435.74
2019-02-19T08:40:12.457Z,101436.91
2019-02-19T08:42:47.671Z,101447.23
2019-02-19T08:45:18.492Z,101449.73
2019-02-19T08:47:49.966Z,101446.98
2019-02-19T08:50:23.546Z,101447.66
2019-02-19T08:52:54.797Z,101453.41
2019-02-19T08:55:30.753Z,101448.53
2019-02-19T08:58:03.986Z,101452.41
2019-02-19T09:00:50.661Z,101454.97
2019-02-19T09:03:23.832Z,101461.14
2019-02-19T09:05:59.876Z,101471.05
2019-02-19T09:08:34.923Z,101472.06
2019-02-19T09:11:11.128Z,101468.67
2019-02-19T09:13:43.951Z,101468.05
2019-02-19T09:16:17.294Z,101468.25
2019-02-19T09:19:03.697Z,101476.57
2019-02-19T09:21:41.088Z,101477.84
2019-02-19T09:24:14.823Z,101482.52
2019-02-19T09:26:47.614Z,101478.33
2019-02-19T09:29:18.752Z,101481.84
2019-02-19T09:31:49.847Z,101471.06
2019-02-19T09:34:22.568Z,101468.03
2019-02-19T09:36:56.618Z,101468.16
2019-02-19T09:39:27.724Z,101477.70
2019-02-19T09:42:07.011Z,101474.80
2019-02-19T09:44:40.916Z,101471.34
2019-02-19T09:47:11.614Z,101468.00
2019-02-19T09:49:45.638Z,101476.62
2019-02-19T09:52:17.092Z,101469.23
2019-02-19T09:54:50.706Z,101471.28
2019-02-19T09:57:21.693Z,101479.67
2019-02-19T09:59:52.368Z,101476.19
2019-02-19T10:02:24.571Z,101475.80
2019-02-19T10:05:05.968Z,101473.13
2019-02-19T10:07:40.098Z,101468.98
2019-02-19T10:10:14.120Z,101472.29
2019-02-19T10:12:47.123Z,101471.78
2019-02-19T10:15:18.510Z,101477.55
2019-02-19T10:17:48.758Z,101480.64
2019-02-19T10:20:20.857Z,101477.93
2019-02-19T10:22:53.956Z,101474.58
2019-02-19T10:25:25.729Z,101478.69
2019-02-19T10:27:57.870Z,101477.06
2019-02-19T10:30:29.248Z,101477.47
2019-02-19T10:32:59.861Z,101483.98
2019-02-19T10:35:30.412Z,101474.46
2019-02-19T10:38:16.408Z,101473.48
2019-02-19T10:40:52.693Z,101475.94
2019-02-19T10:43:26.328Z,101483.33
2019-02-19T10:46:10.191Z,101483.19
2019-02-19T10:48:44.985Z,101486.60
2019-02-19T10:51:21.395Z,101487.02
2019-02-19T10:54:00.438Z,101484.97
2019-02-19T10:56:31.381Z,101487.84
2019-02-19T10:59:04.717Z,101491.91
2019-02-19T11:01:37.517Z,101474.73
2019-02-19T11:04:14.028Z,101473.77
2019-02-19T11:06:46.388Z,101484.44
2019-02-19T11:09:48.958Z,101475.02
2019-02-19T11:12:22.999Z,101482.43
2019-02-19T11:14:57.629Z,101469.98
2019-02-19T11:17:29.356Z,101472.14
2019-02-19T11:20:03.057Z,101473.00
2019-02-19T11:22:39.046Z,101469.31
2019-02-19T11:25:20.546Z,101465.77
2019-02-19T11:27:57.279Z,101470.82
2019-02-19T11:30:30.148Z,101465.70
2019-02-19T11:33:02.420Z,101465.88
2019-02-19T11:35:34.009Z,101461.23
2019-02-19T11:38:06.238Z,101469.53
2019-02-19T11:40:38.533Z,101462.66
2019-02-19T11:43:12.017Z,101461.98
2019-02-19T11:45:48.602Z,101460.10
2019-02-19T11:48:21.031Z,101457.88
2019-02-19T11:50:59.723Z,101461.70
2019-02-19T11:53:30.774Z,101468.58
2019-02-19T11:56:03.570Z,101465.80
2019-02-19T11:58:39.111Z,101475.02
2019-02-19T12:01:15.623Z,101469.98
2019-02-19T12:03:57.364Z,101470.13
2019-02-19T12:06:30.887Z,101450.86
2019-02-19T12:09:04.081Z,101461.16
2019-02-19T12:11:38.772Z,101466.66
2019-02-19T12:14:19.915Z,101461.75
2019-02-19T12:16:51.914Z,101462.56
2019-02-19T12:19:33.856Z,101458.94
2019-02-19T12:22:07.217Z,101470.34
2019-02-19T12:24:46.778Z,101470.02
2019-02-19T12:27:23.962Z,101481.21
2019-02-19T12:29:57.544Z,101480.98
2019-02-19T12:32:38.139Z,101469.58
2019-02-19T12:35:22.096Z,101468.84
2019-02-19T12:37:54.665Z,101468.73
2019-02-19T12:41:06.343Z,101476.24
2019-02-19T12:43:58.062Z,101474.49
2019-02-19T12:46:43.858Z,101466.73
2019-02-19T12:49:43.532Z,101473.11
2019-02-19T12:52:41.863Z,101461.77
2019-02-19T12:55:15.539Z,101466.31
2019-02-19T12:57:49.234Z,101465.23
2019-02-19T13:00:40.366Z,101465.38
2019-02-19T13:03:13.276Z,101460.84
2019-02-19T13:05:49.264Z,101461.83
2019-02-19T13:08:25.591Z,101461.78
2019-02-19T13:10:58.060Z,101465.05
2019-02-19T13:13:47.987Z,101468.34
2019-02-19T13:16:35.928Z,101466.97
2019-02-19T13:19:09.357Z,101471.36
2019-02-19T13:22:00.805Z,101468.44
2019-02-19T13:25:09.133Z,101475.49
2019-02-19T13:27:55.202Z,101471.51
2019-02-19T13:30:40.144Z,101478.67
2019-02-19T13:33:17.108Z,101474.37
2019-02-19T13:36:14.158Z,101481.48
2019-02-19T13:38:53.164Z,101477.00
2019-02-19T13:41:26.126Z,101472.47
2019-02-19T13:44:01.283Z,101476.45
2019-02-19T13:46:34.987Z,101469.67
2019-02-19T13:49:18.785Z,101472.14
2019-02-19T13:51:52.024Z,101486.28
2019-02-19T13:54:50.314Z,101474.25
2019-02-19T14:01:21.969Z,101477.95
2019-02-19T14:03:57.228Z,101466.46
2019-02-19T14:06:31.159Z,101470.89
2019-02-19T14:09:01.634Z,101475.16
2019-02-19T14:12:13.784Z,101470.55
2019-02-19T14:15:21.263Z,101470.89
2019-02-19T14:18:15.371Z,101470.87
2019-02-19T14:21:25.536Z,101468.63
2019-02-19T14:24:24.456Z,101471.77
2019-02-19T14:27:40.779Z,101476.66
2019-02-19T14:30:31.712Z,101476.72
2019-02-19T14:33:21.301Z,101471.21
2019-02-19T14:36:23.381Z,101476.80
2019-02-19T14:39:31.064Z,101472.07
2019-02-19T14:42:24.301Z,101473.94
2019-02-19T14:45:35.513Z,101473.87
2019-02-19T14:48:47.008Z,101479.16
2019-02-19T14:51:36.814Z,101480.42
2019-02-19T14:54:29.730Z,101480.05
2019-02-19T14:57:23.447Z,101480.13
2019-02-19T15:00:14.193Z,101480.39
2019-02-19T15:03:21.856Z,101476.00
2019-02-19T15:06:16.252Z,101474.89
2019-02-19T15:09:19.858Z,101482.45
2019-02-19T15:12:11.578Z,101480.53
2019-02-19T15:15:03.276Z,101478.86
2019-02-19T15:17:48.605Z,101476.39
2019-02-19T15:20:41.224Z,101481.59
2019-02-19T15:23:34.188Z,101485.35
2019-02-19T15:26:19.691Z,101482.89
2019-02-19T15:29:09.881Z,101486.44
2019-02-19T15:31:57.662Z,101481.03
2019-02-19T15:35:02.184Z,101480.60
2019-02-19T15:37:54.085Z,101478.40
2019-02-19T15:40:55.779Z,101478.27
2019-02-19T15:43:34.572Z,101482.80
2019-02-19T15:46:27.559Z,101483.77
2019-02-19T15:49:23.579Z,101487.77
2019-02-19T15:52:15.567Z,101490.93
2019-02-19T15:56:00.830Z,101485.26
2019-02-19T15:59:01.821Z,101494.78
2019-02-19T16:01:53.382Z,101499.44
2019-02-19T16:04:57.693Z,101496.27
2019-02-19T16:07:56.184Z,101501.24
2019-02-19T16:10:49.686Z,101499.56
2019-02-19T16:13:51.850Z,101495.08
2019-02-19T16:16:52.807Z,101490.63
2019-02-19T16:20:01.932Z,101495.74
2019-02-19T16:23:39.526Z,101499.17
2019-02-19T16:26:50.714Z,101509.31
2019-02-19T16:30:35.844Z,101499.23
2019-02-19T16:34:18.453Z,101504.67
2019-02-19T17:00:12.772Z,101526.13
2019-02-19T17:03:16.149Z,101522.05
2019-02-19T17:07:16.205Z,101525.27
2019-02-19T17:10:05.300Z,101516.78
2019-02-19T17:13:25.261Z,101517.43
2019-02-19T17:20:28.966Z,101512.70
2019-02-19T17:23:06.940Z,101525.94
2019-02-19T17:30:18.066Z,101525.52
2019-02-19T17:33:11.536Z,101527.98
2019-02-19T17:36:10.428Z,101539.92
2019-02-19T17:45:59.518Z,101544.02
2019-02-19T17:48:49.122Z,101544.94
2019-02-19T17:51:41.727Z,101550.17
2019-02-19T17:54:31.835Z,101551.22
2019-02-19T17:57:43.523Z,101550.69
2019-02-19T18:00:38.214Z,101554.69
2019-02-19T18:03:46.481Z,101556.45
2019-02-19T18:06:30.305Z,101554.45
2019-02-19T18:09:27.220Z,101560.95
2019-02-19T18:12:20.699Z,101563.89
2019-02-19T18:15:19.473Z,101570.03
2019-02-19T18:18:22.201Z,101570.95
2019-02-19T18:21:02.988Z,101576.24
2019-02-19T18:23:59.592Z,101579.48
2019-02-19T18:26:38.244Z,101574.56
2019-02-19T18:29:18.383Z,101574.62
2019-02-19T18:31:51.503Z,101582.02
2019-02-19T18:34:27.440Z,101576.95
2019-02-19T18:37:00.169Z,101578.81
2019-02-19T18:39:47.808Z,101580.77
2019-02-19T18:42:32.304Z,101580.91
2019-02-19T18:49:12.853Z,101581.81
2019-02-19T18:52:03.144Z,101570.41
2019-02-19T18:54:42.479Z,101579.11
2019-02-19T18:57:20.916Z,101580.65
2019-02-19T18:59:53.295Z,101578.84
2019-02-19T19:02:31.629Z,101573.83
2019-02-19T19:05:03.959Z,101579.72
2019-02-19T19:07:36.248Z,101581.34
2019-02-19T19:10:17.821Z,101588.75
2019-02-19T19:12:53.642Z,101582.66
2019-02-19T19:15:26.581Z,101584.00
2019-02-19T19:17:56.772Z,101579.74
2019-02-19T19:20:27.263Z,101584.84
2019-02-19T19:22:59.558Z,101582.19
2019-02-19T19:25:34.423Z,101583.15
2019-02-19T19:28:08.363Z,101586.19
2019-02-19T19:30:44.961Z,101585.34
2019-02-19T19:33:32.879Z,101588.88
2019-02-19T19:36:08.631Z,101586.32
2019-02-19T19:38:53.193Z,101591.70
2019-02-19T19:42:07.302Z,101591.50
2019-02-19T19:45:05.851Z,101593.32
2019-02-19T19:50:57.955Z,101598.50
2019-02-19T19:53:33.522Z,101599.89
2019-02-19T19:56:17.737Z,101597.14
2019-02-19T19:58:57.063Z,101595.92
2019-02-19T20:01:35.634Z,101601.92
2019-02-19T20:04:19.984Z,101601.70
2019-02-19T20:07:25.073Z,101605.27
2019-02-19T20:10:10.702Z,101607.83
2019-02-19T20:13:04.258Z,101609.58
2019-02-19T20:15:37.541Z,101608.73
2019-02-19T20:21:26.683Z,101610.25
2019-02-19T20:23:58.498Z,101611.81
2019-02-19T20:26:29.916Z,101607.00
2019-02-19T20:29:04.407Z,101613.37
2019-02-19T20:31:38.342Z,101608.38
2019-02-19T20:34:12.454Z,101618.57
2019-02-19T20:36:48.047Z,101614.25
2019-02-19T20:39:20.361Z,101623.23
2019-02-19T20:41:51.363Z,101625.55
2019-02-19T20:44:23.410Z,101621.49
2019-02-19T20:46:55.859Z,101625.92
2019-02-19T20:49:30.391Z,101617.61
2019-02-19T20:52:05.397Z,101627.90
2019-02-19T20:54:37.590Z,101626.49
2019-02-19T20:57:10.308Z,101632.72
2019-02-19T20:59:42.362Z,101627.05
2019-02-19T21:02:14.635Z,101637.20
2019-02-19T21:04:46.247Z,101632.97
2019-02-19T21:10:16.204Z,101641.34
2019-02-19T21:12:49.970Z,101631.75
2019-02-19T21:15:24.820Z,101635.65
2019-02-19T21:17:59.205Z,101637.25
2019-02-19T21:20:33.676Z,101635.35
2019-02-19T21:23:05.263Z,101635.11
2019-02-19T21:25:37.165Z,101630.70
2019-02-19T21:28:10.707Z,101638.06
2019-02-19T21:30:45.467Z,101635.73
2019-02-19T21:33:18.204Z,101642.31
2019-02-19T21:35:52.849Z,101636.38
2019-02-19T21:38:25.167Z,101629.83
2019-02-19T21:40:57.529Z,101634.15
2019-02-19T21:43:31.496Z,101628.32
2019-02-19T21:46:03.422Z,101633.21
2019-02-19T21:48:35.686Z,101631.42
2019-02-19T21:51:08.184Z,101627.53
2019-02-19T21:53:41.660Z,101633.31
2019-02-19T21:56:17.593Z,101636.00
2019-02-19T22:01:46.392Z,101643.85
2019-02-19T22:04:19.489Z,101641.57
2019-02-19T22:06:53.084Z,101635.68
2019-02-19T22:09:31.173Z,101637.94
2019-02-19T22:12:22.978Z,101640.36
2019-02-19T22:14:55.030Z,101642.80
2019-02-19T22:17:31.027Z,101632.16
2019-02-19T22:20:03.695Z,101642.80
2019-02-19T22:22:39.910Z,101636.78
2019-02-19T22:25:11.855Z,101632.33
2019-02-19T22:27:43.653Z,101639.89
2019-02-19T22:30:17.234Z,101637.49
2019-02-19T22:32:48.399Z,101643.02
2019-02-19T22:35:20.869Z,101642.55
2019-02-19T22:37:52.906Z,101640.97
2019-02-19T22:40:24.046Z,101644.70
2019-02-19T22:42:56.456Z,101643.55
2019-02-19T22:45:31.273Z,101646.64
2019-02-19T22:48:03.353Z,101642.36
2019-02-19T22:50:37.281Z,101638.98
2019-02-19T22:53:29.256Z,101638.07
2019-02-19T22:56:09.544Z,101646.72
2019-02-19T22:58:40.799Z,101645.62
2019-02-19T23:01:28.531Z,101642.13
2019-02-19T23:04:05.515Z,101643.23
2019-02-19T23:06:43.124Z,101652.39
2019-02-19T23:09:14.455Z,101646.77
2019-02-19T23:11:44.879Z,101658.08
2019-02-19T23:14:17.139Z,101656.43
2019-02-19T23:16:50.454Z,101662.30
2019-02-19T23:19:21.853Z,101658.89
2019-02-19T23:21:55.266Z,101663.81
2019-02-19T23:24:29.259Z,101660.36
2019-02-19T23:26:59.857Z,101663.32
2019-02-19T23:29:31.426Z,101663.55
2019-02-19T23:32:02.542Z,101665.38
2019-02-19T23:34:35.328Z,101665.66
2019-02-19T23:37:14.897Z,101664.79
2019-02-19T23:39:46.714Z,101671.61
2019-02-19T23:42:19.825Z,101671.34
2019-02-19T23:44:52.182Z,101671.67
2019-02-19T23:47:22.999Z,101669.58
2019-02-19T23:49:53.281Z,101675.31
2019-02-19T23:52:30.583Z,101673.04
2019-02-19T23:55:03.426Z,101673.56
2019-02-19T23:57:42.925Z,101680.01
